sensor_id;sensor_type;location;lat;lon;timestamp;P1;durP1;ratioP1;P2;durP2;ratioP2
9729;SDS011;4904;49.152;11.004;2022-10-28T00:01:11;6.95;;;4.30;;
9729;SDS011;4904;49.152;11.004;2022-10-28T00:03:39;6.40;;;4.43;;
9729;SDS011;4904;49.152;11.004;2022-10-28T00:06:08;10.45;;;4.78;;
9729;SDS011;4904;49.152;11.004;2022-10-28T00:08:36;10.27;;;4.43;;
9729;SDS011;4904;49.152;11.004;2022-10-28T00:11:06;7.70;;;4.80;;
9729;SDS011;4904;49.152;11.004;2022-10-28T00:13:34;7.60;;;4.35;;
9729;SDS011;4904;49.152;11.004;2022-10-28T00:16:03;8.52;;;4.97;;
9729;SDS011;4904;49.152;11.004;2022-10-28T00:18:31;8.68;;;4.57;;
9729;SDS011;4904;49.152;11.004;2022-10-28T00:20:58;7.43;;;4.88;;
9729;SDS011;4904;49.152;11.004;2022-10-28T00:23:27;6.47;;;4.32;;
9729;SDS011;4904;49.152;11.004;2022-10-28T00:25:54;7.63;;;4.47;;
9729;SDS011;4904;49.152;11.004;2022-10-28T00:28:22;8.95;;;5.10;;
9729;SDS011;4904;49.152;11.004;2022-10-28T00:30:49;9.32;;;3.97;;
9729;SDS011;4904;49.152;11.004;2022-10-28T00:33:16;8.85;;;4.80;;
9729;SDS011;4904;49.152;11.004;2022-10-28T00:35:43;9.23;;;4.68;;
9729;SDS011;4904;49.152;11.004;2022-10-28T00:38:09;7.57;;;4.55;;
9729;SDS011;4904;49.152;11.004;2022-10-28T00:40:36;7.47;;;4.50;;
9729;SDS011;4904;49.152;11.004;2022-10-28T00:43:03;5.28;;;4.32;;
9729;SDS011;4904;49.152;11.004;2022-10-28T00:45:32;9.10;;;4.22;;
9729;SDS011;4904;49.152;11.004;2022-10-28T00:47:59;7.50;;;4.50;;
9729;SDS011;4904;49.152;11.004;2022-10-28T00:50:32;8.50;;;4.60;;
9729;SDS011;4904;49.152;11.004;2022-10-28T00:53:11;8.90;;;4.80;;
9729;SDS011;4904;49.152;11.004;2022-10-28T00:55:42;8.68;;;5.03;;
9729;SDS011;4904;49.152;11.004;2022-10-28T00:58:10;6.82;;;4.57;;
9729;SDS011;4904;49.152;11.004;2022-10-28T01:00:39;8.73;;;5.53;;
9729;SDS011;4904;49.152;11.004;2022-10-28T01:03:06;5.25;;;4.35;;
9729;SDS011;4904;49.152;11.004;2022-10-28T01:05:34;11.77;;;5.15;;
9729;SDS011;4904;49.152;11.004;2022-10-28T01:08:05;7.10;;;4.70;;
9729;SDS011;4904;49.152;11.004;2022-10-28T01:10:35;8.40;;;5.30;;
9729;SDS011;4904;49.152;11.004;2022-10-28T01:13:23;11.18;;;4.80;;
9729;SDS011;4904;49.152;11.004;2022-10-28T01:16:01;9.25;;;5.20;;
9729;SDS011;4904;49.152;11.004;2022-10-28T01:18:32;9.55;;;5.05;;
9729;SDS011;4904;49.152;11.004;2022-10-28T01:21:19;8.27;;;4.90;;
9729;SDS011;4904;49.152;11.004;2022-10-28T01:24:04;6.90;;;4.20;;
9729;SDS011;4904;49.152;11.004;2022-10-28T01:26:54;9.13;;;4.68;;
9729;SDS011;4904;49.152;11.004;2022-10-28T01:32:39;7.65;;;4.32;;
9729;SDS011;4904;49.152;11.004;2022-10-28T01:35:13;8.10;;;4.78;;
9729;SDS011;4904;49.152;11.004;2022-10-28T01:37:48;11.82;;;4.60;;
9729;SDS011;4904;49.152;11.004;2022-10-28T01:40:21;7.57;;;4.68;;
9729;SDS011;4904;49.152;11.004;2022-10-28T01:43:00;8.07;;;4.53;;
9729;SDS011;4904;49.152;11.004;2022-10-28T01:45:34;8.30;;;4.95;;
9729;SDS011;4904;49.152;11.004;2022-10-28T01:48:07;7.28;;;4.25;;
9729;SDS011;4904;49.152;11.004;2022-10-28T01:50:38;9.43;;;4.57;;
9729;SDS011;4904;49.152;11.004;2022-10-28T01:53:09;7.07;;;3.95;;
9729;SDS011;4904;49.152;11.004;2022-10-28T01:55:40;9.38;;;4.28;;
9729;SDS011;4904;49.152;11.004;2022-10-28T01:58:11;9.88;;;4.32;;
9729;SDS011;4904;49.152;11.004;2022-10-28T02:00:42;7.28;;;4.10;;
9729;SDS011;4904;49.152;11.004;2022-10-28T02:03:12;8.55;;;4.75;;
9729;SDS011;4904;49.152;11.004;2022-10-28T02:05:41;9.73;;;4.15;;
9729;SDS011;4904;49.152;11.004;2022-10-28T02:08:18;6.35;;;3.78;;
9729;SDS011;4904;49.152;11.004;2022-10-28T02:11:06;5.63;;;3.58;;
9729;SDS011;4904;49.152;11.004;2022-10-28T02:13:49;7.95;;;3.75;;
9729;SDS011;4904;49.152;11.004;2022-10-28T02:16:22;7.93;;;3.70;;
9729;SDS011;4904;49.152;11.004;2022-10-28T02:18:59;10.07;;;3.97;;
9729;SDS011;4904;49.152;11.004;2022-10-28T02:21:33;7.70;;;3.78;;
9729;SDS011;4904;49.152;11.004;2022-10-28T02:24:07;7.05;;;4.47;;
9729;SDS011;4904;49.152;11.004;2022-10-28T02:26:40;8.15;;;4.00;;
9729;SDS011;4904;49.152;11.004;2022-10-28T02:29:13;5.55;;;4.15;;
9729;SDS011;4904;49.152;11.004;2022-10-28T02:31:46;10.75;;;4.65;;
9729;SDS011;4904;49.152;11.004;2022-10-28T02:34:19;9.43;;;4.78;;
9729;SDS011;4904;49.152;11.004;2022-10-28T02:36:50;7.47;;;3.85;;
9729;SDS011;4904;49.152;11.004;2022-10-28T02:39:23;6.00;;;4.03;;
9729;SDS011;4904;49.152;11.004;2022-10-28T02:41:56;8.35;;;4.10;;
9729;SDS011;4904;49.152;11.004;2022-10-28T02:44:27;12.30;;;4.43;;
9729;SDS011;4904;49.152;11.004;2022-10-28T02:46:56;9.13;;;3.67;;
9729;SDS011;4904;49.152;11.004;2022-10-28T02:49:28;6.35;;;4.07;;
9729;SDS011;4904;49.152;11.004;2022-10-28T02:51:59;6.43;;;4.40;;
9729;SDS011;4904;49.152;11.004;2022-10-28T02:54:30;9.07;;;4.75;;
9729;SDS011;4904;49.152;11.004;2022-10-28T02:57:03;7.15;;;4.65;;
9729;SDS011;4904;49.152;11.004;2022-10-28T02:59:34;11.50;;;7.15;;
9729;SDS011;4904;49.152;11.004;2022-10-28T03:02:01;13.60;;;10.02;;
9729;SDS011;4904;49.152;11.004;2022-10-28T03:04:29;8.05;;;4.30;;
9729;SDS011;4904;49.152;11.004;2022-10-28T03:06:56;7.95;;;3.65;;
9729;SDS011;4904;49.152;11.004;2022-10-28T03:09:23;7.13;;;4.13;;
9729;SDS011;4904;49.152;11.004;2022-10-28T03:11:50;7.63;;;4.75;;
9729;SDS011;4904;49.152;11.004;2022-10-28T03:14:17;8.30;;;4.82;;
9729;SDS011;4904;49.152;11.004;2022-10-28T03:16:44;10.43;;;5.53;;
9729;SDS011;4904;49.152;11.004;2022-10-28T03:19:10;5.53;;;4.50;;
9729;SDS011;4904;49.152;11.004;2022-10-28T03:21:39;8.57;;;4.10;;
9729;SDS011;4904;49.152;11.004;2022-10-28T03:24:06;6.60;;;4.40;;
9729;SDS011;4904;49.152;11.004;2022-10-28T03:26:33;10.32;;;4.90;;
9729;SDS011;4904;49.152;11.004;2022-10-28T03:29:00;10.63;;;5.28;;
9729;SDS011;4904;49.152;11.004;2022-10-28T03:31:27;6.13;;;4.15;;
9729;SDS011;4904;49.152;11.004;2022-10-28T03:33:53;7.90;;;4.20;;
9729;SDS011;4904;49.152;11.004;2022-10-28T03:36:21;7.82;;;3.97;;
9729;SDS011;4904;49.152;11.004;2022-10-28T03:38:49;6.95;;;4.75;;
9729;SDS011;4904;49.152;11.004;2022-10-28T03:41:16;6.70;;;4.68;;
9729;SDS011;4904;49.152;11.004;2022-10-28T03:43:43;8.63;;;4.60;;
9729;SDS011;4904;49.152;11.004;2022-10-28T03:46:10;9.60;;;5.05;;
9729;SDS011;4904;49.152;11.004;2022-10-28T03:48:37;8.95;;;5.22;;
9729;SDS011;4904;49.152;11.004;2022-10-28T03:51:04;12.60;;;5.13;;
9729;SDS011;4904;49.152;11.004;2022-10-28T03:53:31;9.27;;;5.20;;
9729;SDS011;4904;49.152;11.004;2022-10-28T03:56:00;8.40;;;5.22;;
9729;SDS011;4904;49.152;11.004;2022-10-28T03:58:28;11.50;;;5.28;;
9729;SDS011;4904;49.152;11.004;2022-10-28T04:00:55;8.45;;;5.38;;
9729;SDS011;4904;49.152;11.004;2022-10-28T04:03:22;7.65;;;4.65;;
9729;SDS011;4904;49.152;11.004;2022-10-28T04:05:50;12.15;;;5.93;;
9729;SDS011;4904;49.152;11.004;2022-10-28T04:08:17;13.02;;;6.10;;
9729;SDS011;4904;49.152;11.004;2022-10-28T04:10:46;12.27;;;7.38;;
9729;SDS011;4904;49.152;11.004;2022-10-28T04:13:14;8.90;;;7.43;;
9729;SDS011;4904;49.152;11.004;2022-10-28T04:15:41;13.40;;;8.30;;
9729;SDS011;4904;49.152;11.004;2022-10-28T04:18:17;9.63;;;7.57;;
9729;SDS011;4904;49.152;11.004;2022-10-28T04:57:44;13.73;;;7.38;;
9729;SDS011;4904;49.152;11.004;2022-10-28T05:00:34;9.65;;;7.15;;
9729;SDS011;4904;49.152;11.004;2022-10-28T05:03:44;14.15;;;7.70;;
9729;SDS011;4904;49.152;11.004;2022-10-28T05:06:45;10.25;;;6.65;;
9729;SDS011;4904;49.152;11.004;2022-10-28T05:10:11;10.77;;;7.32;;
9729;SDS011;4904;49.152;11.004;2022-10-28T05:19:41;8.48;;;6.20;;
9729;SDS011;4904;49.152;11.004;2022-10-28T05:22:36;11.18;;;6.50;;
9729;SDS011;4904;49.152;11.004;2022-10-28T05:25:22;12.27;;;7.35;;
9729;SDS011;4904;49.152;11.004;2022-10-28T05:28:08;10.18;;;7.45;;
9729;SDS011;4904;49.152;11.004;2022-10-28T05:41:00;11.57;;;6.65;;
9729;SDS011;4904;49.152;11.004;2022-10-28T05:43:55;9.05;;;6.88;;
9729;SDS011;4904;49.152;11.004;2022-10-28T05:46:43;9.10;;;6.63;;
9729;SDS011;4904;49.152;11.004;2022-10-28T05:49:41;10.25;;;6.85;;
9729;SDS011;4904;49.152;11.004;2022-10-28T07:39:06;10.77;;;7.38;;
9729;SDS011;4904;49.152;11.004;2022-10-28T07:41:35;9.10;;;6.60;;
9729;SDS011;4904;49.152;11.004;2022-10-28T07:44:02;13.88;;;6.85;;
9729;SDS011;4904;49.152;11.004;2022-10-28T07:46:31;11.07;;;7.22;;
9729;SDS011;4904;49.152;11.004;2022-10-28T07:48:58;9.23;;;6.22;;
9729;SDS011;4904;49.152;11.004;2022-10-28T07:51:25;7.43;;;5.88;;
9729;SDS011;4904;49.152;11.004;2022-10-28T07:53:52;10.68;;;5.90;;
9729;SDS011;4904;49.152;11.004;2022-10-28T07:56:21;12.73;;;5.93;;
9729;SDS011;4904;49.152;11.004;2022-10-28T07:58:48;10.18;;;6.10;;
9729;SDS011;4904;49.152;11.004;2022-10-28T08:01:16;8.30;;;5.60;;
9729;SDS011;4904;49.152;11.004;2022-10-28T08:03:44;9.35;;;5.70;;
9729;SDS011;4904;49.152;11.004;2022-10-28T08:06:13;7.50;;;5.53;;
9729;SDS011;4904;49.152;11.004;2022-10-28T08:08:41;12.23;;;5.43;;
9729;SDS011;4904;49.152;11.004;2022-10-28T08:11:09;10.40;;;6.18;;
9729;SDS011;4904;49.152;11.004;2022-10-28T08:13:38;7.97;;;5.97;;
9729;SDS011;4904;49.152;11.004;2022-10-28T08:16:06;9.13;;;6.05;;
9729;SDS011;4904;49.152;11.004;2022-10-28T08:18:33;8.77;;;6.05;;
9729;SDS011;4904;49.152;11.004;2022-10-28T08:21:00;9.75;;;5.88;;
9729;SDS011;4904;49.152;11.004;2022-10-28T08:23:28;10.82;;;4.97;;
9729;SDS011;4904;49.152;11.004;2022-10-28T08:25:55;8.80;;;5.10;;
9729;SDS011;4904;49.152;11.004;2022-10-28T08:28:23;8.77;;;4.82;;
9729;SDS011;4904;49.152;11.004;2022-10-28T08:30:51;7.55;;;3.92;;
9729;SDS011;4904;49.152;11.004;2022-10-28T08:33:18;7.38;;;4.20;;
9729;SDS011;4904;49.152;11.004;2022-10-28T08:35:48;5.10;;;3.92;;
9729;SDS011;4904;49.152;11.004;2022-10-28T08:38:15;7.32;;;4.00;;
9729;SDS011;4904;49.152;11.004;2022-10-28T08:40:43;5.57;;;3.47;;
9729;SDS011;4904;49.152;11.004;2022-10-28T08:43:18;6.15;;;3.40;;
9729;SDS011;4904;49.152;11.004;2022-10-28T08:46:18;5.85;;;3.03;;
9729;SDS011;4904;49.152;11.004;2022-10-28T08:48:53;6.00;;;3.38;;
9729;SDS011;4904;49.152;11.004;2022-10-28T08:51:21;8.63;;;3.42;;
9729;SDS011;4904;49.152;11.004;2022-10-28T08:53:56;6.25;;;3.33;;
9729;SDS011;4904;49.152;11.004;2022-10-28T08:56:27;4.72;;;3.20;;
9729;SDS011;4904;49.152;11.004;2022-10-28T08:58:59;5.45;;;3.00;;
9729;SDS011;4904;49.152;11.004;2022-10-28T09:01:34;5.95;;;2.95;;
9729;SDS011;4904;49.152;11.004;2022-10-28T09:04:10;5.18;;;2.72;;
9729;SDS011;4904;49.152;11.004;2022-10-28T09:06:43;6.55;;;2.97;;
9729;SDS011;4904;49.152;11.004;2022-10-28T09:09:11;5.57;;;3.08;;
9729;SDS011;4904;49.152;11.004;2022-10-28T09:11:55;6.47;;;2.70;;
9729;SDS011;4904;49.152;11.004;2022-10-28T09:14:45;5.78;;;2.75;;
9729;SDS011;4904;49.152;11.004;2022-10-28T09:17:36;5.25;;;2.10;;
9729;SDS011;4904;49.152;11.004;2022-10-28T09:20:10;3.70;;;2.40;;
9729;SDS011;4904;49.152;11.004;2022-10-28T09:22:45;3.30;;;2.55;;
9729;SDS011;4904;49.152;11.004;2022-10-28T09:25:21;4.03;;;2.45;;
9729;SDS011;4904;49.152;11.004;2022-10-28T09:28:01;3.88;;;1.92;;
9729;SDS011;4904;49.152;11.004;2022-10-28T09:30:37;5.45;;;2.55;;
9729;SDS011;4904;49.152;11.004;2022-10-28T09:33:20;6.38;;;2.88;;
9729;SDS011;4904;49.152;11.004;2022-10-28T09:36:06;5.72;;;2.53;;
9729;SDS011;4904;49.152;11.004;2022-10-28T09:38:38;5.82;;;2.67;;
9729;SDS011;4904;49.152;11.004;2022-10-28T09:41:06;4.38;;;2.45;;
9729;SDS011;4904;49.152;11.004;2022-10-28T09:43:39;4.22;;;2.20;;
9729;SDS011;4904;49.152;11.004;2022-10-28T09:46:12;7.25;;;2.60;;
9729;SDS011;4904;49.152;11.004;2022-10-28T09:48:42;3.92;;;2.13;;
9729;SDS011;4904;49.152;11.004;2022-10-28T09:51:15;7.82;;;2.25;;
9729;SDS011;4904;49.152;11.004;2022-10-28T09:53:50;5.55;;;2.20;;
9729;SDS011;4904;49.152;11.004;2022-10-28T09:56:21;5.20;;;2.22;;
9729;SDS011;4904;49.152;11.004;2022-10-28T09:58:49;3.90;;;2.20;;
9729;SDS011;4904;49.152;11.004;2022-10-28T10:01:17;4.80;;;2.35;;
9729;SDS011;4904;49.152;11.004;2022-10-28T10:03:47;5.63;;;2.50;;
9729;SDS011;4904;49.152;11.004;2022-10-28T10:06:16;6.10;;;2.30;;
9729;SDS011;4904;49.152;11.004;2022-10-28T10:08:45;6.43;;;2.28;;
9729;SDS011;4904;49.152;11.004;2022-10-28T10:11:13;4.80;;;2.20;;
9729;SDS011;4904;49.152;11.004;2022-10-28T10:13:49;7.20;;;2.50;;
9729;SDS011;4904;49.152;11.004;2022-10-28T10:16:20;4.75;;;2.28;;
9729;SDS011;4904;49.152;11.004;2022-10-28T10:18:54;6.85;;;2.00;;
9729;SDS011;4904;49.152;11.004;2022-10-28T10:21:41;6.63;;;2.13;;
9729;SDS011;4904;49.152;11.004;2022-10-28T10:24:29;4.05;;;2.33;;
9729;SDS011;4904;49.152;11.004;2022-10-28T10:26:58;5.82;;;2.50;;
9729;SDS011;4904;49.152;11.004;2022-10-28T10:29:27;9.90;;;2.60;;
9729;SDS011;4904;49.152;11.004;2022-10-28T10:32:06;3.15;;;2.00;;
9729;SDS011;4904;49.152;11.004;2022-10-28T10:34:43;5.60;;;2.17;;
9729;SDS011;4904;49.152;11.004;2022-10-28T10:37:17;17.73;;;3.25;;
9729;SDS011;4904;49.152;11.004;2022-10-28T10:39:49;7.25;;;2.00;;
9729;SDS011;4904;49.152;11.004;2022-10-28T10:42:28;5.07;;;1.88;;
9729;SDS011;4904;49.152;11.004;2022-10-28T10:44:59;4.63;;;1.85;;
9729;SDS011;4904;49.152;11.004;2022-10-28T10:47:27;5.03;;;1.98;;
9729;SDS011;4904;49.152;11.004;2022-10-28T10:52:49;6.55;;;2.22;;
9729;SDS011;4904;49.152;11.004;2022-10-28T10:55:26;6.82;;;2.20;;
9729;SDS011;4904;49.152;11.004;2022-10-28T10:58:00;3.78;;;2.08;;
9729;SDS011;4904;49.152;11.004;2022-10-28T11:00:29;6.43;;;2.05;;
9729;SDS011;4904;49.152;11.004;2022-10-28T11:03:00;3.30;;;2.10;;
9729;SDS011;4904;49.152;11.004;2022-10-28T11:05:30;3.97;;;2.00;;
9729;SDS011;4904;49.152;11.004;2022-10-28T11:07:57;7.55;;;2.30;;
9729;SDS011;4904;49.152;11.004;2022-10-28T11:10:29;6.50;;;1.92;;
9729;SDS011;4904;49.152;11.004;2022-10-28T11:13:00;5.97;;;2.40;;
9729;SDS011;4904;49.152;11.004;2022-10-28T11:15:29;3.35;;;1.90;;
9729;SDS011;4904;49.152;11.004;2022-10-28T11:17:59;5.55;;;2.22;;
9729;SDS011;4904;49.152;11.004;2022-10-28T11:20:27;5.88;;;1.90;;
9729;SDS011;4904;49.152;11.004;2022-10-28T11:23:21;4.45;;;2.00;;
9729;SDS011;4904;49.152;11.004;2022-10-28T11:26:05;7.60;;;2.17;;
9729;SDS011;4904;49.152;11.004;2022-10-28T11:28:41;5.10;;;2.55;;
9729;SDS011;4904;49.152;11.004;2022-10-28T11:31:21;5.68;;;2.17;;
9729;SDS011;4904;49.152;11.004;2022-10-28T11:34:03;12.85;;;2.33;;
9729;SDS011;4904;49.152;11.004;2022-10-28T11:36:48;5.60;;;1.80;;
9729;SDS011;4904;49.152;11.004;2022-10-28T11:39:26;8.60;;;2.25;;
9729;SDS011;4904;49.152;11.004;2022-10-28T11:42:00;4.50;;;2.08;;
9729;SDS011;4904;49.152;11.004;2022-10-28T11:44:40;7.35;;;2.15;;
9729;SDS011;4904;49.152;11.004;2022-10-28T11:52:56;5.25;;;1.83;;
9729;SDS011;4904;49.152;11.004;2022-10-28T11:55:58;7.93;;;2.38;;
9729;SDS011;4904;49.152;11.004;2022-10-28T11:58:32;6.80;;;2.50;;
9729;SDS011;4904;49.152;11.004;2022-10-28T12:01:12;5.43;;;1.92;;
9729;SDS011;4904;49.152;11.004;2022-10-28T12:03:59;4.60;;;1.83;;
9729;SDS011;4904;49.152;11.004;2022-10-28T12:06:42;3.97;;;2.20;;
9729;SDS011;4904;49.152;11.004;2022-10-28T12:09:23;6.53;;;2.40;;
9729;SDS011;4904;49.152;11.004;2022-10-28T12:11:57;4.22;;;1.92;;
9729;SDS011;4904;49.152;11.004;2022-10-28T12:14:37;3.15;;;1.80;;
9729;SDS011;4904;49.152;11.004;2022-10-28T12:17:12;7.72;;;2.22;;
9729;SDS011;4904;49.152;11.004;2022-10-28T12:19:45;5.30;;;2.33;;
9729;SDS011;4904;49.152;11.004;2022-10-28T12:22:17;6.50;;;2.05;;
9729;SDS011;4904;49.152;11.004;2022-10-28T12:24:49;17.25;;;10.60;;
9729;SDS011;4904;49.152;11.004;2022-10-28T12:27:19;4.80;;;2.00;;
9729;SDS011;4904;49.152;11.004;2022-10-28T12:29:50;4.97;;;2.00;;
9729;SDS011;4904;49.152;11.004;2022-10-28T12:32:21;4.90;;;2.00;;
9729;SDS011;4904;49.152;11.004;2022-10-28T12:34:53;14.52;;;2.88;;
9729;SDS011;4904;49.152;11.004;2022-10-28T12:37:26;5.38;;;2.03;;
9729;SDS011;4904;49.152;11.004;2022-10-28T12:40:00;3.05;;;2.00;;
9729;SDS011;4904;49.152;11.004;2022-10-28T12:42:32;4.18;;;2.00;;
9729;SDS011;4904;49.152;11.004;2022-10-28T12:45:03;5.93;;;2.17;;
9729;SDS011;4904;49.152;11.004;2022-10-28T12:47:36;5.97;;;2.10;;
9729;SDS011;4904;49.152;11.004;2022-10-28T12:50:09;6.25;;;2.03;;
9729;SDS011;4904;49.152;11.004;2022-10-28T12:52:43;7.22;;;1.80;;
9729;SDS011;4904;49.152;11.004;2022-10-28T12:55:23;4.57;;;2.15;;
9729;SDS011;4904;49.152;11.004;2022-10-28T12:57:58;3.72;;;1.75;;
9729;SDS011;4904;49.152;11.004;2022-10-28T13:00:30;8.63;;;2.10;;
9729;SDS011;4904;49.152;11.004;2022-10-28T13:03:02;6.03;;;2.10;;
9729;SDS011;4904;49.152;11.004;2022-10-28T13:05:32;4.35;;;1.70;;
9729;SDS011;4904;49.152;11.004;2022-10-28T13:08:11;7.15;;;2.15;;
9729;SDS011;4904;49.152;11.004;2022-10-28T13:10:56;5.50;;;2.10;;
9729;SDS011;4904;49.152;11.004;2022-10-28T13:13:44;3.67;;;1.80;;
9729;SDS011;4904;49.152;11.004;2022-10-28T13:16:19;4.60;;;2.20;;
9729;SDS011;4904;49.152;11.004;2022-10-28T13:22:13;6.03;;;2.38;;
9729;SDS011;4904;49.152;11.004;2022-10-28T13:24:57;5.60;;;2.20;;
9729;SDS011;4904;49.152;11.004;2022-10-28T13:27:34;6.25;;;1.95;;
9729;SDS011;4904;49.152;11.004;2022-10-28T13:30:02;5.03;;;1.90;;
9729;SDS011;4904;49.152;11.004;2022-10-28T13:32:32;4.32;;;1.90;;
9729;SDS011;4904;49.152;11.004;2022-10-28T13:35:00;7.80;;;2.00;;
9729;SDS011;4904;49.152;11.004;2022-10-28T13:37:38;5.85;;;2.17;;
9729;SDS011;4904;49.152;11.004;2022-10-28T13:40:10;5.03;;;2.40;;
9729;SDS011;4904;49.152;11.004;2022-10-28T13:42:48;4.90;;;2.10;;
9729;SDS011;4904;49.152;11.004;2022-10-28T13:48:31;6.10;;;2.15;;
9729;SDS011;4904;49.152;11.004;2022-10-28T13:53:58;5.40;;;1.92;;
9729;SDS011;4904;49.152;11.004;2022-10-28T13:56:31;7.50;;;1.75;;
9729;SDS011;4904;49.152;11.004;2022-10-28T14:02:23;3.45;;;1.90;;
9729;SDS011;4904;49.152;11.004;2022-10-28T14:04:54;5.00;;;2.20;;
9729;SDS011;4904;49.152;11.004;2022-10-28T14:07:24;5.10;;;2.10;;
9729;SDS011;4904;49.152;11.004;2022-10-28T14:09:55;2.95;;;2.20;;
9729;SDS011;4904;49.152;11.004;2022-10-28T14:12:39;7.68;;;2.55;;
9729;SDS011;4904;49.152;11.004;2022-10-28T14:15:17;6.10;;;2.45;;
9729;SDS011;4904;49.152;11.004;2022-10-28T14:17:47;5.85;;;2.15;;
9729;SDS011;4904;49.152;11.004;2022-10-28T14:26:20;5.38;;;2.00;;
9729;SDS011;4904;49.152;11.004;2022-10-28T14:28:51;5.28;;;2.40;;
9729;SDS011;4904;49.152;11.004;2022-10-28T14:31:36;5.70;;;2.10;;
9729;SDS011;4904;49.152;11.004;2022-10-28T14:37:22;10.10;;;2.22;;
9729;SDS011;4904;49.152;11.004;2022-10-28T14:40:18;6.95;;;2.38;;
9729;SDS011;4904;49.152;11.004;2022-10-28T14:42:51;5.85;;;2.10;;
9729;SDS011;4904;49.152;11.004;2022-10-28T14:45:30;9.57;;;2.00;;
9729;SDS011;4904;49.152;11.004;2022-10-28T14:48:15;7.63;;;2.05;;
9729;SDS011;4904;49.152;11.004;2022-10-28T14:50:50;8.63;;;2.28;;
9729;SDS011;4904;49.152;11.004;2022-10-28T14:53:21;9.45;;;2.60;;
9729;SDS011;4904;49.152;11.004;2022-10-28T14:55:55;4.75;;;2.30;;
9729;SDS011;4904;49.152;11.004;2022-10-28T14:58:27;5.57;;;2.53;;
9729;SDS011;4904;49.152;11.004;2022-10-28T15:01:01;8.55;;;3.20;;
9729;SDS011;4904;49.152;11.004;2022-10-28T15:03:45;10.23;;;3.10;;
9729;SDS011;4904;49.152;11.004;2022-10-28T15:06:18;4.97;;;2.00;;
9729;SDS011;4904;49.152;11.004;2022-10-28T15:08:52;5.20;;;2.20;;
9729;SDS011;4904;49.152;11.004;2022-10-28T15:11:20;5.25;;;1.98;;
9729;SDS011;4904;49.152;11.004;2022-10-28T15:13:48;19.27;;;3.00;;
9729;SDS011;4904;49.152;11.004;2022-10-28T15:16:18;5.75;;;2.33;;
9729;SDS011;4904;49.152;11.004;2022-10-28T15:18:49;6.50;;;2.25;;
9729;SDS011;4904;49.152;11.004;2022-10-28T15:21:18;7.25;;;2.15;;
9729;SDS011;4904;49.152;11.004;2022-10-28T15:23:56;6.05;;;2.35;;
9729;SDS011;4904;49.152;11.004;2022-10-28T15:26:25;6.55;;;2.45;;
9729;SDS011;4904;49.152;11.004;2022-10-28T15:28:52;9.25;;;2.53;;
9729;SDS011;4904;49.152;11.004;2022-10-28T15:31:19;6.82;;;1.90;;
9729;SDS011;4904;49.152;11.004;2022-10-28T15:33:46;8.48;;;2.38;;
9729;SDS011;4904;49.152;11.004;2022-10-28T15:36:15;7.75;;;2.28;;
9729;SDS011;4904;49.152;11.004;2022-10-28T15:38:44;6.97;;;2.17;;
9729;SDS011;4904;49.152;11.004;2022-10-28T15:44:22;5.95;;;2.40;;
9729;SDS011;4904;49.152;11.004;2022-10-28T15:46:52;6.68;;;2.80;;
9729;SDS011;4904;49.152;11.004;2022-10-28T15:52:20;5.35;;;2.38;;
9729;SDS011;4904;49.152;11.004;2022-10-28T15:57:52;9.93;;;2.55;;
9729;SDS011;4904;49.152;11.004;2022-10-28T16:00:21;8.50;;;2.20;;
9729;SDS011;4904;49.152;11.004;2022-10-28T16:02:50;6.25;;;2.55;;
9729;SDS011;4904;49.152;11.004;2022-10-28T16:05:41;4.25;;;2.30;;
9729;SDS011;4904;49.152;11.004;2022-10-28T16:08:15;9.43;;;2.50;;
9729;SDS011;4904;49.152;11.004;2022-10-28T16:10:50;4.18;;;2.25;;
9729;SDS011;4904;49.152;11.004;2022-10-28T16:13:21;5.25;;;2.40;;
9729;SDS011;4904;49.152;11.004;2022-10-28T16:16:01;5.93;;;2.50;;
9729;SDS011;4904;49.152;11.004;2022-10-28T16:18:31;8.30;;;2.60;;
9729;SDS011;4904;49.152;11.004;2022-10-28T16:21:03;9.35;;;3.08;;
9729;SDS011;4904;49.152;11.004;2022-10-28T16:23:35;7.47;;;2.33;;
9729;SDS011;4904;49.152;11.004;2022-10-28T16:26:05;6.90;;;2.63;;
9729;SDS011;4904;49.152;11.004;2022-10-28T16:28:35;6.40;;;2.60;;
9729;SDS011;4904;49.152;11.004;2022-10-28T16:31:02;3.92;;;2.38;;
9729;SDS011;4904;49.152;11.004;2022-10-28T16:33:30;8.68;;;2.78;;
9729;SDS011;4904;49.152;11.004;2022-10-28T16:35:59;6.43;;;2.60;;
9729;SDS011;4904;49.152;11.004;2022-10-28T16:38:27;8.57;;;2.67;;
9729;SDS011;4904;49.152;11.004;2022-10-28T16:40:56;9.52;;;2.47;;
9729;SDS011;4904;49.152;11.004;2022-10-28T16:43:25;5.63;;;2.70;;
9729;SDS011;4904;49.152;11.004;2022-10-28T16:45:54;5.80;;;2.15;;
9729;SDS011;4904;49.152;11.004;2022-10-28T16:48:24;4.75;;;2.70;;
9729;SDS011;4904;49.152;11.004;2022-10-28T16:50:52;6.40;;;2.55;;
9729;SDS011;4904;49.152;11.004;2022-10-28T16:53:22;10.27;;;2.72;;
9729;SDS011;4904;49.152;11.004;2022-10-28T16:55:49;6.63;;;2.75;;
9729;SDS011;4904;49.152;11.004;2022-10-28T16:58:17;3.60;;;2.50;;
9729;SDS011;4904;49.152;11.004;2022-10-28T17:00:44;4.43;;;2.67;;
9729;SDS011;4904;49.152;11.004;2022-10-28T17:03:11;5.97;;;2.95;;
9729;SDS011;4904;49.152;11.004;2022-10-28T17:05:39;8.80;;;2.90;;
9729;SDS011;4904;49.152;11.004;2022-10-28T17:08:08;6.40;;;2.63;;
9729;SDS011;4904;49.152;11.004;2022-10-28T17:10:35;6.78;;;2.60;;
9729;SDS011;4904;49.152;11.004;2022-10-28T17:13:03;6.35;;;2.63;;
9729;SDS011;4904;49.152;11.004;2022-10-28T17:15:34;6.50;;;2.67;;
9729;SDS011;4904;49.152;11.004;2022-10-28T17:18:01;7.50;;;2.50;;
9729;SDS011;4904;49.152;11.004;2022-10-28T17:20:28;6.95;;;2.67;;
9729;SDS011;4904;49.152;11.004;2022-10-28T17:22:55;5.40;;;2.35;;
9729;SDS011;4904;49.152;11.004;2022-10-28T17:25:23;6.28;;;2.70;;
9729;SDS011;4904;49.152;11.004;2022-10-28T17:27:50;6.10;;;2.53;;
9729;SDS011;4904;49.152;11.004;2022-10-28T17:30:17;8.23;;;3.00;;
9729;SDS011;4904;49.152;11.004;2022-10-28T17:32:48;6.35;;;3.80;;
9729;SDS011;4904;49.152;11.004;2022-10-28T17:35:17;8.82;;;2.75;;
9729;SDS011;4904;49.152;11.004;2022-10-28T17:37:46;5.40;;;2.60;;
9729;SDS011;4904;49.152;11.004;2022-10-28T17:40:14;8.43;;;2.88;;
9729;SDS011;4904;49.152;11.004;2022-10-28T17:42:41;7.53;;;2.72;;
9729;SDS011;4904;49.152;11.004;2022-10-28T17:45:08;4.07;;;2.63;;
9729;SDS011;4904;49.152;11.004;2022-10-28T17:47:36;6.00;;;2.65;;
9729;SDS011;4904;49.152;11.004;2022-10-28T17:50:04;5.32;;;2.53;;
9729;SDS011;4904;49.152;11.004;2022-10-28T17:52:32;5.88;;;2.75;;
9729;SDS011;4904;49.152;11.004;2022-10-28T17:55:00;9.85;;;2.75;;
9729;SDS011;4904;49.152;11.004;2022-10-28T17:57:27;4.35;;;2.42;;
9729;SDS011;4904;49.152;11.004;2022-10-28T17:59:54;5.15;;;2.40;;
9729;SDS011;4904;49.152;11.004;2022-10-28T18:02:21;8.82;;;2.83;;
9729;SDS011;4904;49.152;11.004;2022-10-28T18:04:51;4.15;;;2.63;;
9729;SDS011;4904;49.152;11.004;2022-10-28T18:07:19;10.02;;;2.60;;
9729;SDS011;4904;49.152;11.004;2022-10-28T18:09:46;7.47;;;3.15;;
9729;SDS011;4904;49.152;11.004;2022-10-28T18:12:13;10.93;;;2.90;;
9729;SDS011;4904;49.152;11.004;2022-10-28T18:14:40;5.53;;;2.70;;
9729;SDS011;4904;49.152;11.004;2022-10-28T18:17:07;5.25;;;2.53;;
9729;SDS011;4904;49.152;11.004;2022-10-28T18:19:37;5.18;;;2.58;;
9729;SDS011;4904;49.152;11.004;2022-10-28T18:22:03;6.47;;;2.65;;
9729;SDS011;4904;49.152;11.004;2022-10-28T18:24:32;6.28;;;2.35;;
9729;SDS011;4904;49.152;11.004;2022-10-28T18:26:59;7.38;;;2.80;;
9729;SDS011;4904;49.152;11.004;2022-10-28T18:29:26;8.02;;;3.00;;
9729;SDS011;4904;49.152;11.004;2022-10-28T18:31:55;4.72;;;2.65;;
9729;SDS011;4904;49.152;11.004;2022-10-28T18:34:22;7.03;;;2.47;;
9729;SDS011;4904;49.152;11.004;2022-10-28T18:36:49;4.93;;;2.83;;
9729;SDS011;4904;49.152;11.004;2022-10-28T18:39:16;6.20;;;2.55;;
9729;SDS011;4904;49.152;11.004;2022-10-28T18:41:44;4.43;;;2.60;;
9729;SDS011;4904;49.152;11.004;2022-10-28T18:44:11;3.70;;;2.47;;
9729;SDS011;4904;49.152;11.004;2022-10-28T18:46:44;7.35;;;2.35;;
9729;SDS011;4904;49.152;11.004;2022-10-28T18:49:11;4.10;;;2.63;;
9729;SDS011;4904;49.152;11.004;2022-10-28T18:51:38;6.25;;;3.30;;
9729;SDS011;4904;49.152;11.004;2022-10-28T18:54:05;7.15;;;2.90;;
9729;SDS011;4904;49.152;11.004;2022-10-28T18:56:32;8.10;;;2.75;;